Time;durP1;ratioP1;P1;durP2;ratioP2;P2;SDS_P1;SDS_P2;PMS_P1;PMS_P2;Temp;Humidity;BMP_temperature;BMP_pressure;BME280_temperature;BME280_humidity;BME280_pressure;Samples;Min_cycle;Max_cycle;Signal;HPM_P1;HPM_P2
2022/07/20 00:00:58;;;;;;;5.30;3.40;;;;;;;15.38;100.00;98722.16;2609174;28;20052;-75
2022/07/20 00:02:14;;;;;;;5.18;2.90;;;;;;;15.43;100.00;98719.31;2608765;28;20516;-75
2022/07/20 00:03:30;;;;;;;5.85;2.78;;;;;;;15.44;100.00;98723.69;2609079;28;20056;-74
2022/07/20 00:04:46;;;;;;;5.55;3.17;;;;;;;15.46;100.00;98717.41;2608245;28;20080;-74
2022/07/20 00:06:02;;;;;;;3.83;2.97;;;;;;;15.41;100.00;98724.66;2609016;28;20045;-75
2022/07/20 00:07:17;;;;;;;5.55;2.67;;;;;;;15.38;100.00;98717.75;2607766;28;20091;-75
2022/07/20 00:11:42;;;;;;;3.65;2.78;;;;;;;15.50;100.00;98732.19;2609012;28;20510;-74
2022/07/20 00:12:57;;;;;;;5.43;3.10;;;;;;;15.50;100.00;98731.31;2608209;28;20427;-74
2022/07/20 00:14:13;;;;;;;4.03;2.72;;;;;;;15.47;100.00;98727.06;2608639;28;20099;-76
2022/07/20 00:15:29;;;;;;;5.28;3.10;;;;;;;15.42;100.00;98725.53;2608389;28;20088;-74
2022/07/20 00:16:45;;;;;;;4.90;3.25;;;;;;;15.34;100.00;98728.50;2608602;28;20055;-76
2022/07/20 00:18:02;;;;;;;5.50;3.17;;;;;;;15.28;100.00;98726.09;2608704;28;20080;-76
2022/07/20 00:19:19;;;;;;;5.97;3.20;;;;;;;15.24;100.00;98723.63;2607819;28;20049;-77
2022/07/20 00:20:35;;;;;;;5.68;3.17;;;;;;;15.22;100.00;98732.50;2601781;28;20122;-74
2022/07/20 00:21:51;;;;;;;5.95;3.70;;;;;;;15.16;100.00;98727.50;2608161;28;20053;-77
2022/07/20 00:23:06;;;;;;;6.43;3.28;;;;;;;15.18;100.00;98725.66;2608465;28;20049;-77
2022/07/20 00:24:22;;;;;;;4.53;3.15;;;;;;;15.11;100.00;98723.28;2608591;28;20578;-77
2022/07/20 00:25:37;;;;;;;4.72;3.10;;;;;;;15.06;100.00;98722.59;2608519;28;20085;-76
2022/07/20 00:26:53;;;;;;;3.90;2.90;;;;;;;14.85;100.00;98718.25;2608040;28;20045;-76
2022/07/20 00:28:08;;;;;;;3.83;3.20;;;;;;;14.80;100.00;98727.16;2607816;28;20480;-76
2022/07/20 00:29:24;;;;;;;6.40;3.08;;;;;;;14.78;100.00;98726.38;2608308;28;20523;-76
2022/07/20 00:30:42;;;;;;;4.28;3.38;;;;;;;14.80;100.00;98723.69;2608143;28;20089;-76
2022/07/20 00:31:57;;;;;;;4.22;3.00;;;;;;;14.78;100.00;98722.91;2608826;28;20045;-75
2022/07/20 00:33:13;;;;;;;5.25;3.30;;;;;;;14.76;100.00;98724.75;2608276;28;20131;-75
2022/07/20 00:34:28;;;;;;;5.07;3.25;;;;;;;14.78;100.00;98722.91;2608732;28;20486;-76
2022/07/20 00:35:44;;;;;;;4.07;3.03;;;;;;;14.77;100.00;98726.47;2608451;28;20045;-75
2022/07/20 00:36:59;;;;;;;4.22;3.25;;;;;;;14.79;100.00;98719.34;2608248;28;20564;-75
2022/07/20 00:38:15;;;;;;;4.38;3.10;;;;;;;14.75;100.00;98720.41;2608534;28;20522;-75
2022/07/20 00:39:31;;;;;;;5.60;3.85;;;;;;;14.71;100.00;98722.25;2608301;28;20545;-77
2022/07/20 00:40:46;;;;;;;3.60;3.15;;;;;;;14.69;100.00;98724.94;2608680;28;20053;-76
2022/07/20 00:42:02;;;;;;;7.18;3.40;;;;;;;14.73;100.00;98722.22;2608679;28;20559;-76
2022/07/20 00:43:17;;;;;;;3.50;2.88;;;;;;;14.73;100.00;98722.22;2608111;28;20044;-76
2022/07/20 00:44:33;;;;;;;6.38;3.20;;;;;;;14.59;100.00;98718.31;2607775;28;20059;-75
2022/07/20 00:45:49;;;;;;;7.70;3.35;;;;;;;14.47;100.00;98718.84;2608603;28;20049;-76
2022/07/20 00:47:04;;;;;;;4.63;3.30;;;;;;;14.47;100.00;98722.31;2608353;28;20052;-75
2022/07/20 00:48:20;;;;;;;4.18;3.00;;;;;;;14.57;100.00;98714.91;2608574;28;20041;-75
2022/07/20 00:49:35;;;;;;;4.50;3.15;;;;;;;14.54;100.00;98721.16;2608525;28;20415;-75
2022/07/20 00:50:51;;;;;;;3.42;2.92;;;;;;;14.58;100.00;98721.03;2607510;28;20076;-75
2022/07/20 00:52:07;;;;;;;4.32;3.45;;;;;;;14.59;100.00;98720.13;2607568;28;20094;-75
2022/07/20 00:53:23;;;;;;;5.32;3.42;;;;;;;14.57;100.00;98716.69;2607619;28;20701;-75
2022/07/20 00:54:39;;;;;;;7.57;3.58;;;;;;;14.60;100.00;98713.94;2607491;28;20071;-75
2022/07/20 00:55:55;;;;;;;5.70;3.35;;;;;;;14.53;100.00;98714.19;2608177;28;20111;-76
2022/07/20 00:57:10;;;;;;;4.38;2.83;;;;;;;14.50;100.00;98719.56;2608302;28;20045;-76
2022/07/20 00:58:26;;;;;;;4.72;3.25;;;;;;;14.64;100.00;98720.78;2608372;28;20045;-76
2022/07/20 00:59:42;;;;;;;6.00;3.15;;;;;;;14.73;100.00;98719.56;2608618;28;20211;-75
2022/07/20 01:00:58;;;;;;;4.75;2.83;;;;;;;14.66;100.00;98722.44;2608392;28;20618;-75
2022/07/20 01:02:13;;;;;;;7.63;3.35;;;;;;;14.68;100.00;98714.50;2607782;28;20071;-76
2022/07/20 01:03:30;;;;;;;3.83;2.80;;;;;;;14.65;100.00;98717.22;2607870;28;20152;-75
2022/07/20 01:04:45;;;;;;;4.40;3.03;;;;;;;14.67;100.00;98716.25;2608384;28;20053;-76
2022/07/20 01:06:01;;;;;;;4.18;3.15;;;;;;;14.75;100.00;98713.34;2608217;28;20049;-75
2022/07/20 01:07:18;;;;;;;4.90;3.50;;;;;;;14.70;100.00;98717.91;2607831;28;20484;-75
2022/07/20 01:08:33;;;;;;;4.43;3.20;;;;;;;14.66;100.00;98713.66;2607654;28;20049;-75
2022/07/20 01:09:50;;;;;;;5.97;3.38;;;;;;;14.59;100.00;98714.84;2608122;28;20503;-76
2022/07/20 01:11:06;;;;;;;6.25;3.55;;;;;;;14.51;100.00;98707.25;2608133;28;20092;-75
2022/07/20 01:12:22;;;;;;;5.28;3.60;;;;;;;14.30;100.00;98711.59;2608625;28;20080;-75
2022/07/20 01:13:37;;;;;;;5.32;3.42;;;;;;;14.32;100.00;98708.00;2608046;28;20071;-75
2022/07/20 01:14:54;;;;;;;4.80;3.20;;;;;;;14.32;100.00;98709.75;2607723;28;20049;-73
2022/07/20 01:16:09;;;;;;;6.50;3.28;;;;;;;14.33;100.00;98709.69;2608094;28;20052;-74
2022/07/20 01:17:25;;;;;;;4.85;3.70;;;;;;;14.24;100.00;98710.88;2607072;28;20529;-76
2022/07/20 01:18:40;;;;;;;5.53;3.30;;;;;;;14.27;100.00;98709.94;2607307;28;20080;-76
2022/07/20 01:19:56;;;;;;;4.13;3.40;;;;;;;14.20;100.00;98709.31;2608068;28;20060;-75
2022/07/20 01:21:12;;;;;;;8.40;3.45;;;;;;;14.33;100.00;98708.84;2607421;28;20530;-75
2022/07/20 01:22:28;;;;;;;3.95;3.00;;;;;;;14.45;100.00;98710.97;2606819;28;20720;-75
2022/07/20 01:23:43;;;;;;;7.60;3.15;;;;;;;14.41;100.00;98704.97;2607315;28;20136;-75
2022/07/20 01:24:59;;;;;;;4.18;3.08;;;;;;;14.41;100.00;98704.97;2607287;28;20061;-75
2022/07/20 01:26:19;;;;;;;5.38;3.50;;;;;;;14.44;100.00;98711.91;2607646;28;20052;-76
2022/07/20 01:27:35;;;;;;;5.20;3.83;;;;;;;14.44;100.00;98717.16;2608121;28;20391;-76
2022/07/20 01:28:50;;;;;;;6.95;3.50;;;;;;;14.45;100.00;98713.63;2608012;28;20053;-75
2022/07/20 01:30:06;;;;;;;4.07;3.13;;;;;;;14.44;100.00;98718.94;2607977;28;20144;-75
2022/07/20 01:31:22;;;;;;;4.93;3.72;;;;;;;14.38;100.00;98709.50;2607890;28;20499;-75
2022/07/20 01:32:38;;;;;;;6.05;3.72;;;;;;;14.12;100.00;98711.38;2607311;28;20052;-75
2022/07/20 01:33:53;;;;;;;6.05;3.60;;;;;;;14.00;100.00;98712.69;2607636;28;20462;-75
2022/07/20 01:35:09;;;;;;;5.65;3.65;;;;;;;13.88;100.00;98716.66;2607779;28;20468;-76
2022/07/20 01:36:25;;;;;;;4.15;3.40;;;;;;;13.90;100.00;98712.19;2608041;28;20110;-76
2022/07/20 01:37:41;;;;;;;6.03;3.83;;;;;;;14.00;100.00;98709.22;2607314;28;20388;-76
2022/07/20 01:38:56;;;;;;;6.05;3.97;;;;;;;13.92;100.00;98702.47;2607528;28;20492;-77
2022/07/20 01:40:12;;;;;;;5.38;3.67;;;;;;;13.96;100.00;98714.56;2607722;28;20143;-75
2022/07/20 01:41:28;;;;;;;5.13;3.67;;;;;;;13.96;100.00;98711.09;2608072;28;20396;-75
2022/07/20 01:42:43;;;;;;;4.93;3.65;;;;;;;14.02;100.00;98710.00;2607968;28;20049;-75
2022/07/20 01:43:59;;;;;;;3.97;3.33;;;;;;;14.05;100.00;98707.25;2607838;28;20056;-75
2022/07/20 01:45:14;;;;;;;4.00;3.47;;;;;;;14.06;100.00;98712.47;2607669;28;20051;-75
2022/07/20 01:46:30;;;;;;;5.15;3.63;;;;;;;14.06;100.00;98711.59;2607848;28;20131;-76
2022/07/20 01:47:46;;;;;;;6.32;3.42;;;;;;;14.06;100.00;98715.13;2607581;28;20052;-75
2022/07/20 01:49:02;;;;;;;5.40;3.50;;;;;;;14.08;100.00;98713.28;2606502;28;20052;-75
2022/07/20 01:50:17;;;;;;;6.25;3.38;;;;;;;14.01;100.00;98713.56;2606750;28;20107;-75
2022/07/20 01:51:33;;;;;;;5.93;3.30;;;;;;;13.96;100.00;98711.09;2608087;28;20053;-76
2022/07/20 01:52:48;;;;;;;4.85;3.30;;;;;;;13.86;100.00;98710.59;2607732;28;20049;-75
2022/07/20 01:54:04;;;;;;;6.63;3.90;;;;;;;13.84;100.00;98715.06;2608008;28;20071;-76
2022/07/20 01:55:19;;;;;;;4.35;3.20;;;;;;;13.80;100.00;98716.06;2607814;28;20116;-76
2022/07/20 01:56:35;;;;;;;3.78;3.13;;;;;;;13.90;100.00;98717.44;2607569;28;20057;-76
2022/07/20 01:57:51;;;;;;;4.15;3.33;;;;;;;14.00;100.00;98710.06;2606637;28;20162;-76
2022/07/20 01:59:07;;;;;;;4.95;3.40;;;;;;;14.06;100.00;98711.59;2607358;28;20655;-76
2022/07/20 02:00:23;;;;;;;3.42;2.83;;;;;;;14.03;100.00;98709.94;2607350;28;20508;-75
2022/07/20 02:01:39;;;;;;;4.78;3.42;;;;;;;14.01;100.00;98710.94;2607629;28;20083;-76
2022/07/20 02:02:54;;;;;;;6.65;3.40;;;;;;;14.00;100.00;98709.22;2607548;28;20098;-76
2022/07/20 02:04:10;;;;;;;5.43;3.42;;;;;;;14.00;100.00;98709.22;2607645;28;20077;-75
2022/07/20 02:05:25;;;;;;;4.38;3.40;;;;;;;14.15;100.00;98716.53;2607646;28;20045;-76
2022/07/20 02:06:41;;;;;;;6.40;4.15;;;;;;;14.08;100.00;98707.13;2607728;28;20049;-76
2022/07/20 02:07:57;;;;;;;4.82;3.60;;;;;;;14.06;100.00;98709.84;2607440;28;20045;-75
2022/07/20 02:09:12;;;;;;;4.47;3.50;;;;;;;14.07;100.00;98706.28;2606956;28;20086;-76
2022/07/20 02:10:28;;;;;;;5.28;3.83;;;;;;;14.01;100.00;98710.94;2606716;28;20792;-75
2022/07/20 02:11:44;;;;;;;4.47;3.15;;;;;;;14.00;100.00;98717.13;2607200;28;20400;-75
2022/07/20 02:12:59;;;;;;;5.07;3.40;;;;;;;13.96;100.00;98711.94;2606890;28;20065;-75
2022/07/20 02:14:15;;;;;;;4.28;3.47;;;;;;;13.94;100.00;98710.31;2607097;28;20063;-75
2022/07/20 02:17:05;;;;;;;4.15;3.33;;;;;;;13.78;100.00;98710.88;2607630;28;20053;-76
2022/07/20 02:18:21;;;;;;;3.97;3.58;;;;;;;13.79;100.00;98714.34;2607805;28;20040;-75
2022/07/20 02:19:36;;;;;;;5.72;3.60;;;;;;;13.79;100.00;98715.22;2607643;28;20045;-75
2022/07/20 02:20:52;;;;;;;5.45;3.33;;;;;;;13.78;100.00;98715.28;2607466;28;20045;-76
2022/07/20 02:22:08;;;;;;;4.75;3.30;;;;;;;13.81;100.00;98710.75;2607238;28;20111;-75
2022/07/20 02:23:23;;;;;;;5.00;3.40;;;;;;;13.86;100.00;98712.34;2607071;28;20569;-75
2022/07/20 02:24:39;;;;;;;5.85;3.65;;;;;;;13.84;100.00;98712.44;2607572;28;20114;-76
2022/07/20 02:25:54;;;;;;;6.03;3.65;;;;;;;13.75;100.00;98702.22;2607722;28;20411;-75
2022/07/20 02:27:10;;;;;;;5.60;3.58;;;;;;;13.73;100.00;98707.53;2607588;28;20450;-76
2022/07/20 02:28:26;;;;;;;7.38;3.63;;;;;;;13.73;100.00;98706.69;2607722;28;20045;-76
2022/07/20 02:29:41;;;;;;;5.28;3.50;;;;;;;13.58;100.00;98706.34;2607465;28;20045;-75
2022/07/20 02:30:57;;;;;;;5.03;3.50;;;;;;;13.44;100.00;98704.19;2607236;28;20045;-76
2022/07/20 02:32:13;;;;;;;4.43;3.25;;;;;;;13.42;100.00;98703.34;2607357;28;20522;-75
2022/07/20 02:33:28;;;;;;;4.85;3.70;;;;;;;13.39;100.00;98706.94;2607721;28;20418;-76
2022/07/20 02:34:44;;;;;;;5.63;3.30;;;;;;;13.39;100.00;98703.47;2607776;28;20088;-76
2022/07/20 02:35:59;;;;;;;5.25;3.25;;;;;;;13.29;100.00;98702.94;2606964;28;20057;-75
2022/07/20 02:37:15;;;;;;;5.68;3.35;;;;;;;13.29;100.00;98708.22;2607368;28;20686;-76
2022/07/20 02:38:31;;;;;;;5.88;3.83;;;;;;;13.33;100.00;98704.53;2607704;28;20106;-76
2022/07/20 02:39:46;;;;;;;6.07;3.80;;;;;;;13.70;100.00;98707.66;2607506;28;20085;-75
2022/07/20 02:41:02;;;;;;;6.25;4.00;;;;;;;13.68;100.00;98710.34;2607308;28;20045;-75
2022/07/20 02:42:18;;;;;;;5.45;3.92;;;;;;;14.07;100.00;98706.28;2607739;28;20123;-75
2022/07/20 02:43:33;;;;;;;6.85;4.20;;;;;;;14.31;100.00;98710.66;2607743;28;20215;-75
2022/07/20 02:44:49;;;;;;;8.05;4.10;;;;;;;14.37;100.00;98707.78;2607362;28;20045;-75
2022/07/20 02:46:04;;;;;;;6.75;4.00;;;;;;;14.33;100.00;98709.69;2607596;28;20478;-76
2022/07/20 02:47:20;;;;;;;6.88;4.40;;;;;;;14.29;100.00;98712.50;2607407;28;20053;-75
2022/07/20 02:48:36;;;;;;;6.30;3.83;;;;;;;14.20;100.00;98713.72;2607239;28;20055;-76
2022/07/20 02:49:51;;;;;;;5.82;4.20;;;;;;;13.94;100.00;98721.69;2607551;28;19924;-76
2022/07/20 02:51:07;;;;;;;8.30;3.58;;;;;;;13.80;100.00;98719.56;2607332;28;20060;-76
2022/07/20 02:52:22;;;;;;;4.55;3.47;;;;;;;13.69;100.00;98713.84;2607442;28;20053;-75
2022/07/20 02:53:38;;;;;;;8.23;3.65;;;;;;;13.61;100.00;98716.75;2607150;28;20423;-75
2022/07/20 02:54:53;;;;;;;5.85;3.67;;;;;;;13.69;100.00;98721.72;2606975;28;20511;-75
2022/07/20 02:56:09;;;;;;;7.18;3.78;;;;;;;13.69;100.00;98713.84;2607398;28;20045;-75
2022/07/20 02:57:25;;;;;;;4.78;3.75;;;;;;;13.68;100.00;98714.75;2606947;28;20136;-75
2022/07/20 02:58:40;;;;;;;5.13;3.85;;;;;;;13.55;100.00;98714.34;2607662;28;20487;-76
2022/07/20 02:59:56;;;;;;;4.55;3.60;;;;;;;13.49;100.00;98718.06;2607334;28;20480;-76
2022/07/20 03:01:11;;;;;;;5.03;4.10;;;;;;;13.46;100.00;98712.03;2606174;28;20049;-76
2022/07/20 03:02:27;;;;;;;5.38;3.65;;;;;;;13.47;100.00;98713.75;2606073;28;20127;-76
2022/07/20 03:03:43;;;;;;;4.70;3.60;;;;;;;13.33;100.00;98715.06;2607495;28;20060;-76
2022/07/20 03:04:58;;;;;;;5.18;3.70;;;;;;;13.20;100.00;98713.78;2607310;28;20467;-76
2022/07/20 03:06:16;;;;;;;4.50;3.67;;;;;;;13.08;100.00;98710.66;2607422;28;20067;-75
2022/07/20 03:07:32;;;;;;;4.63;3.70;;;;;;;12.99;100.00;98714.44;2607398;28;20045;-75
2022/07/20 03:08:47;;;;;;;6.47;3.90;;;;;;;12.97;100.00;98712.78;2607533;28;20560;-75
2022/07/20 03:10:03;;;;;;;5.45;3.90;;;;;;;12.92;100.00;98714.72;2607352;28;20518;-76
2022/07/20 03:11:19;;;;;;;5.47;3.53;;;;;;;12.91;100.00;98713.00;2607429;28;20053;-75
2022/07/20 03:12:35;;;;;;;4.70;3.55;;;;;;;12.99;100.00;98710.94;2607087;28;20533;-75
2022/07/20 03:13:50;;;;;;;6.03;3.95;;;;;;;12.96;100.00;98717.19;2607363;28;20052;-75
2022/07/20 03:15:07;;;;;;;7.15;3.72;;;;;;;13.04;100.00;98719.56;2606160;28;20053;-76
2022/07/20 03:16:23;;;;;;;5.22;3.88;;;;;;;13.14;100.00;98717.47;2606655;28;20487;-76
2022/07/20 03:17:44;;;;;;;4.20;3.78;;;;;;;13.18;100.00;98716.44;2606518;28;20107;-76
2022/07/20 03:18:59;;;;;;;7.70;3.83;;;;;;;13.10;100.00;98714.06;2606796;28;20463;-76
2022/07/20 03:20:23;;;;;;;6.18;4.00;;;;;;;13.05;100.00;98709.88;2607072;28;20045;-77
2022/07/20 03:21:39;;;;;;;11.13;3.85;;;;;;;13.07;100.00;98711.56;2606901;28;20045;-76
2022/07/20 03:22:56;;;;;;;8.85;3.92;;;;;;;13.16;100.00;98709.53;2608876;28;20507;-76
2022/07/20 03:24:11;;;;;;;7.55;3.85;;;;;;;13.19;100.00;98712.06;2609166;28;20213;-76
2022/07/20 03:25:27;;;;;;;7.13;3.75;;;;;;;13.19;100.00;98709.44;2609127;28;21124;-76
2022/07/20 03:26:42;;;;;;;5.63;3.65;;;;;;;13.14;100.00;98712.22;2608183;28;20052;-77
2022/07/20 03:27:59;;;;;;;6.18;3.72;;;;;;;13.18;100.00;98710.34;2608756;28;20407;-76
2022/07/20 03:29:14;;;;;;;5.97;3.53;;;;;;;13.08;100.00;98708.00;2608648;28;20545;-77
2022/07/20 03:30:30;;;;;;;8.32;3.90;;;;;;;13.05;100.00;98712.50;2607232;28;20088;-77
2022/07/20 03:31:46;;;;;;;6.22;3.40;;;;;;;13.08;100.00;98717.69;2608855;28;20040;-76
2022/07/20 03:33:01;;;;;;;5.22;3.75;;;;;;;13.14;100.00;98722.72;2609611;28;20079;-76
2022/07/20 03:34:17;;;;;;;5.35;3.72;;;;;;;13.14;100.00;98720.97;2608545;28;20146;-77
2022/07/20 03:35:33;;;;;;;8.38;3.55;;;;;;;13.27;100.00;98720.56;2608932;28;20702;-76
2022/07/20 03:36:51;;;;;;;4.82;3.80;;;;;;;13.30;100.00;98720.44;2608952;28;20454;-76
2022/07/20 03:38:06;;;;;;;6.55;3.85;;;;;;;13.32;100.00;98723.88;2608879;28;20088;-76
2022/07/20 03:39:22;;;;;;;5.95;3.70;;;;;;;13.39;100.00;98719.25;2608647;28;20208;-76
2022/07/20 03:40:38;;;;;;;5.15;3.67;;;;;;;13.42;100.00;98727.03;2602031;28;20603;-76
2022/07/20 03:41:53;;;;;;;4.18;3.60;;;;;;;13.48;100.00;98723.34;2608605;28;20079;-75
2022/07/20 03:43:09;;;;;;;5.55;3.90;;;;;;;13.54;100.00;98723.13;2609562;28;20087;-76
2022/07/20 03:44:24;;;;;;;6.85;3.67;;;;;;;13.57;100.00;98728.31;2609082;28;20049;-75
2022/07/20 03:45:40;;;;;;;9.18;4.20;;;;;;;13.62;100.00;98723.72;2608651;28;20496;-76
2022/07/20 03:46:55;;;;;;;4.97;3.80;;;;;;;13.63;100.00;98724.59;2609140;28;20496;-76
2022/07/20 03:48:11;;;;;;;8.52;3.97;;;;;;;13.64;100.00;98728.94;2608970;28;20072;-76
2022/07/20 03:49:26;;;;;;;5.20;3.85;;;;;;;13.60;100.00;98729.94;2608782;28;20049;-76
2022/07/20 03:50:42;;;;;;;5.63;4.00;;;;;;;13.61;100.00;98727.28;2608672;28;20055;-75
2022/07/20 03:51:58;;;;;;;5.35;4.20;;;;;;;13.62;100.00;98723.72;2608977;28;20048;-76
2022/07/20 03:53:13;;;;;;;5.22;4.03;;;;;;;13.61;100.00;98729.03;2607936;28;20052;-75
2022/07/20 03:54:29;;;;;;;4.20;3.80;;;;;;;13.61;100.00;98734.28;2608858;28;20483;-76
2022/07/20 03:55:44;;;;;;;7.80;4.20;;;;;;;13.53;100.00;98726.69;2608500;28;21114;-76
2022/07/20 03:57:00;;;;;;;4.90;3.80;;;;;;;13.36;100.00;98733.34;2608844;28;20505;-76
2022/07/20 03:58:16;;;;;;;8.05;4.75;;;;;;;13.30;100.00;98724.81;2608627;28;20128;-76
2022/07/20 03:59:33;;;;;;;8.25;3.90;;;;;;;13.30;100.00;98730.97;2608632;28;20056;-76
2022/07/20 04:00:48;;;;;;;9.68;3.95;;;;;;;13.33;100.00;98728.22;2608181;28;20045;-75
2022/07/20 04:02:04;;;;;;;5.85;4.00;;;;;;;13.36;100.00;98724.63;2608213;28;20049;-75
2022/07/20 04:03:20;;;;;;;7.80;3.75;;;;;;;13.41;100.00;98728.81;2607917;28;20073;-77
2022/07/20 04:04:36;;;;;;;6.13;3.85;;;;;;;13.40;100.00;98732.34;2608473;28;20052;-76
2022/07/20 04:05:51;;;;;;;4.75;4.10;;;;;;;13.37;100.00;98732.44;2607960;28;20041;-76
2022/07/20 04:07:07;;;;;;;8.35;4.18;;;;;;;13.35;100.00;98726.38;2607333;28;20419;-76
2022/07/20 04:08:22;;;;;;;7.40;4.03;;;;;;;13.32;100.00;98729.13;2608070;28;20080;-76
2022/07/20 04:09:44;;;;;;;9.10;4.65;;;;;;;13.34;100.00;98729.06;2608154;28;20052;-74
2022/07/20 04:11:00;;;;;;;5.93;4.18;;;;;;;13.47;100.00;98724.28;2608409;28;20113;-74
2022/07/20 04:12:19;;;;;;;5.72;4.07;;;;;;;13.58;100.00;98731.78;2608071;28;20106;-74
2022/07/20 04:13:34;;;;;;;6.40;4.70;;;;;;;13.61;100.00;98727.28;2608957;28;20048;-74
2022/07/20 04:14:52;;;;;;;6.43;4.40;;;;;;;13.60;100.00;98728.19;2607362;28;20044;-74
2022/07/20 04:16:08;;;;;;;5.65;4.22;;;;;;;13.64;100.00;98731.56;2608143;28;20044;-74
2022/07/20 04:17:23;;;;;;;8.60;4.20;;;;;;;13.67;100.00;98734.94;2607747;28;20642;-75
2022/07/20 04:18:39;;;;;;;7.63;4.45;;;;;;;13.73;100.00;98731.22;2608100;28;20224;-76
2022/07/20 04:19:55;;;;;;;6.15;3.85;;;;;;;13.78;100.00;98734.56;2607932;28;20451;-74
2022/07/20 04:21:10;;;;;;;5.63;4.03;;;;;;;13.79;100.00;98730.16;2608737;28;20048;-74
2022/07/20 04:22:26;;;;;;;8.98;4.22;;;;;;;13.83;100.00;98742.28;2607918;28;20057;-74
2022/07/20 04:23:41;;;;;;;6.10;4.40;;;;;;;13.82;100.00;98735.28;2608884;28;20049;-75
2022/07/20 04:24:57;;;;;;;6.30;4.65;;;;;;;13.87;100.00;98741.25;2608781;28;20474;-75
2022/07/20 04:26:12;;;;;;;7.88;4.80;;;;;;;13.88;100.00;98735.06;2608603;28;20051;-75
2022/07/20 04:27:28;;;;;;;7.82;4.50;;;;;;;13.90;100.00;98735.00;2608155;28;20484;-75
2022/07/20 04:28:44;;;;;;;7.88;4.95;;;;;;;13.89;100.00;98741.19;2608387;28;20144;-75
2022/07/20 04:29:59;;;;;;;5.38;4.45;;;;;;;13.86;100.00;98741.31;2608264;28;20118;-75
2022/07/20 04:31:15;;;;;;;9.20;5.10;;;;;;;13.88;100.00;98742.09;2607739;28;20060;-75
2022/07/20 04:32:30;;;;;;;6.30;4.50;;;;;;;13.89;100.00;98746.44;2606890;28;20049;-75
2022/07/20 04:33:46;;;;;;;6.75;4.80;;;;;;;13.90;100.00;98742.91;2606734;28;20602;-76
2022/07/20 04:35:02;;;;;;;7.53;4.70;;;;;;;13.93;100.00;98745.44;2607640;28;20495;-75
2022/07/20 04:36:17;;;;;;;7.97;4.68;;;;;;;13.94;100.00;98753.25;2607990;28;20132;-75
2022/07/20 04:37:33;;;;;;;5.80;4.43;;;;;;;14.03;100.00;98751.22;2608255;28;20045;-75
2022/07/20 04:38:49;;;;;;;8.27;4.80;;;;;;;14.09;100.00;98751.84;2607845;28;20041;-75
2022/07/20 04:40:05;;;;;;;7.13;4.50;;;;;;;14.17;100.00;98750.69;2607571;28;20511;-75
2022/07/20 04:41:20;;;;;;;6.65;4.38;;;;;;;14.31;100.00;98752.81;2607255;28;20048;-75
2022/07/20 04:42:36;;;;;;;6.70;4.22;;;;;;;14.45;100.00;98755.75;2606960;28;20041;-76
2022/07/20 04:43:52;;;;;;;7.05;4.60;;;;;;;14.46;100.00;98762.75;2606935;28;20049;-75
2022/07/20 04:45:08;;;;;;;6.68;4.90;;;;;;;14.41;100.00;98757.66;2607691;28;20057;-75
2022/07/20 04:46:23;;;;;;;8.00;4.78;;;;;;;14.46;100.00;98762.75;2606871;28;20052;-76
2022/07/20 04:47:39;;;;;;;6.85;4.78;;;;;;;14.67;100.00;98754.94;2606068;28;20047;-75
2022/07/20 04:48:55;;;;;;;6.18;4.22;;;;;;;14.72;100.00;98755.63;2607404;28;20041;-75
2022/07/20 04:50:12;;;;;;;6.72;4.53;;;;;;;14.85;100.00;98755.13;2605265;28;20045;-76
2022/07/20 04:51:27;;;;;;;6.93;4.40;;;;;;;14.87;100.00;98759.41;2607551;28;20491;-75
2022/07/20 04:52:43;;;;;;;10.48;4.53;;;;;;;14.96;100.00;98763.47;2607423;28;20049;-76
2022/07/20 04:53:58;;;;;;;6.28;4.15;;;;;;;14.92;100.00;98761.88;2607653;28;20044;-75
2022/07/20 04:55:14;;;;;;;8.63;4.38;;;;;;;15.03;100.00;98766.72;2607182;28;20072;-75
2022/07/20 04:56:30;;;;;;;7.78;4.47;;;;;;;15.17;100.00;98760.84;2607443;28;20041;-73
2022/07/20 04:57:46;;;;;;;5.70;4.30;;;;;;;15.34;100.00;98758.34;2606604;28;20056;-73
2022/07/20 04:59:02;;;;;;;8.98;4.70;;;;;;;15.32;100.00;98762.00;2606969;28;20815;-75
2022/07/20 05:00:17;;;;;;;5.30;4.35;;;;;;;15.32;100.00;98760.22;2607803;28;20041;-73
2022/07/20 05:01:33;;;;;;;6.35;4.00;;;;;;;15.36;100.00;98758.31;2607134;28;20045;-74
2022/07/20 05:02:49;;;;;;;7.57;3.83;;;;;;;15.25;100.00;98761.41;2607570;28;20044;-75
2022/07/20 05:04:04;;;;;;;7.25;4.40;;;;;;;15.22;100.00;98758.88;2607079;28;20045;-74
2022/07/20 05:05:20;;;;;;;7.22;4.63;;;;;;;15.26;100.00;98757.84;2606962;28;20103;-74
2022/07/20 05:06:35;;;;;;;5.78;4.22;;;;;;;15.34;100.00;98760.16;2606891;28;20048;-74
2022/07/20 05:07:51;;;;;;;5.28;4.43;;;;;;;15.39;100.00;98756.41;2606939;28;20045;-75
2022/07/20 05:09:07;;;;;;;6.70;4.60;;;;;;;15.56;100.00;98753.94;2607708;28;20049;-74
2022/07/20 05:10:22;;;;;;;8.27;4.47;;;;;;;15.68;100.00;98762.19;2606444;28;20056;-75
2022/07/20 05:11:39;;;;;;;5.80;3.92;;;;;;;15.61;100.00;98760.75;2607923;28;20368;-75
2022/07/20 05:12:55;;;;;;;4.85;4.20;;;;;;;15.64;100.00;98751.84;2606767;28;20127;-75
2022/07/20 05:14:10;;;;;;;5.90;4.50;;;;;;;15.70;100.00;98756.00;2606956;28;20049;-75
2022/07/20 05:15:26;;;;;;;6.53;4.40;;;;;;;15.79;100.00;98753.78;2606078;28;20135;-76
2022/07/20 05:16:42;;;;;;;9.35;4.47;;;;;;;15.75;100.00;98746.06;2606430;28;20045;-75
2022/07/20 05:17:57;;;;;;;10.55;4.63;;;;;;;15.76;100.00;98753.94;2606716;28;20040;-75
2022/07/20 05:19:13;;;;;;;8.32;4.82;;;;;;;15.79;100.00;98759.06;2606733;28;20533;-75
2022/07/20 05:20:29;;;;;;;7.45;4.82;;;;;;;15.85;100.00;98760.59;2607339;28;20048;-75
2022/07/20 05:21:44;;;;;;;8.48;4.75;;;;;;;15.89;100.00;98756.03;2607347;28;20091;-75
2022/07/20 05:23:00;;;;;;;6.65;4.05;;;;;;;15.87;100.00;98760.53;2606528;28;20057;-77
2022/07/20 05:24:16;;;;;;;9.57;4.10;;;;;;;15.91;100.00;98762.97;2606917;28;20053;-77
2022/07/20 05:25:31;;;;;;;7.78;4.63;;;;;;;15.94;100.00;98762.00;2606158;28;20049;-78
2022/07/20 05:26:47;;;;;;;8.38;4.60;;;;;;;15.95;100.00;98759.28;2606894;28;20045;-78
2022/07/20 05:28:02;;;;;;;6.28;4.53;;;;;;;16.04;100.00;98763.28;2606659;28;20041;-78
2022/07/20 05:29:18;;;;;;;6.22;4.25;;;;;;;16.00;100.00;98764.38;2607140;28;20491;-77
2022/07/20 05:30:34;;;;;;;6.47;4.50;;;;;;;16.13;100.00;98756.72;2606266;28;20044;-77
2022/07/20 05:31:49;;;;;;;8.27;4.35;;;;;;;16.27;100.00;98757.88;2606411;28;20045;-77
2022/07/20 05:33:05;;;;;;;8.63;4.43;;;;;;;16.29;100.00;98761.31;2607818;28;20045;-76
2022/07/20 05:34:21;;;;;;;6.35;4.15;;;;;;;16.31;100.00;98754.16;2607607;28;20076;-77
2022/07/20 05:35:36;;;;;;;5.43;4.22;;;;;;;16.38;100.00;98755.59;2608091;28;20068;-77
2022/07/20 05:36:52;;;;;;;7.90;4.25;;;;;;;16.44;100.00;98755.31;2607300;28;20072;-76
2022/07/20 05:38:08;;;;;;;4.40;3.90;;;;;;;16.43;100.00;98753.59;2607154;28;20042;-78
2022/07/20 05:39:23;;;;;;;6.10;4.10;;;;;;;16.47;100.00;98752.50;2607370;28;20591;-77
2022/07/20 05:40:39;;;;;;;7.13;4.38;;;;;;;16.43;100.00;98750.94;2607515;28;20049;-78
2022/07/20 05:41:54;;;;;;;6.55;4.05;;;;;;;16.54;100.00;98752.22;2607205;28;20060;-78
2022/07/20 05:43:10;;;;;;;5.70;4.00;;;;;;;16.63;100.00;98749.16;2608404;28;20056;-77
2022/07/20 05:44:26;;;;;;;4.75;4.18;;;;;;;16.69;100.00;98748.84;2604443;28;20052;-78
2022/07/20 05:45:42;;;;;;;6.10;4.18;;;;;;;16.70;100.00;98750.56;2598708;28;20057;-77
2022/07/20 05:46:57;;;;;;;6.75;4.47;;;;;;;16.80;100.00;98741.25;2604152;28;20045;-81
2022/07/20 05:48:14;;;;;;;6.70;4.10;;;;;;;16.83;100.00;98748.16;2604970;28;20130;-76
2022/07/20 05:49:30;;;;;;;7.93;4.55;;;;;;;16.90;100.00;98740.78;2605110;28;20838;-77
2022/07/20 05:50:46;;;;;;;6.03;4.30;;;;;;;17.03;100.00;98741.09;2604661;28;20115;-76
2022/07/20 05:52:03;;;;;;;5.93;4.43;;;;;;;17.00;100.00;98746.53;2604354;28;20077;-77
2022/07/20 05:53:19;;;;;;;5.65;4.05;;;;;;;17.03;100.00;98744.56;2605014;28;20045;-77
2022/07/20 05:54:34;;;;;;;7.28;4.20;;;;;;;17.16;100.00;98749.25;2605205;28;20419;-77
2022/07/20 05:55:50;;;;;;;6.00;4.45;;;;;;;17.20;100.00;98743.72;2604104;28;20487;-77
2022/07/20 05:57:05;;;;;;;7.43;4.38;;;;;;;17.27;100.00;98746.09;2604867;28;20072;-77